createdAt,value
2023-04-06T00:00:38.708Z,-2.12
2023-04-06T00:03:25.138Z,-2.25
2023-04-06T00:06:11.710Z,-2.23
2023-04-06T00:08:58.409Z,-2.11
2023-04-06T00:11:44.659Z,-2.03
2023-04-06T00:14:31.441Z,-2.09
2023-04-06T00:17:18.205Z,-2.26
2023-04-06T00:20:05.564Z,-2.15
2023-04-06T00:22:52.021Z,-2.33
2023-04-06T00:25:38.369Z,-2.35
2023-04-06T00:28:30.824Z,-2.48
2023-04-06T00:31:17.074Z,-2.47
2023-04-06T00:34:03.418Z,-2.41
2023-04-06T00:36:49.845Z,-2.58
2023-04-06T00:39:36.111Z,-2.46
2023-04-06T00:42:27.132Z,-2.50
2023-04-06T00:45:13.921Z,-2.61
2023-04-06T00:48:02.829Z,-2.54
2023-04-06T00:50:49.243Z,-2.52
2023-04-06T00:53:36.197Z,-2.42
2023-04-06T00:56:27.165Z,-2.47
2023-04-06T00:59:14.397Z,-2.63
2023-04-06T01:02:01.840Z,-2.69
2023-04-06T01:04:57.460Z,-2.59
2023-04-06T01:07:53.699Z,-2.65
2023-04-06T01:10:47.595Z,-2.53
2023-04-06T01:13:49.006Z,-2.66
2023-04-06T01:16:44.654Z,-2.69
2023-04-06T01:19:37.658Z,-2.28
2023-04-06T01:22:26.114Z,-2.31
2023-04-06T01:25:18.915Z,-2.20
2023-04-06T01:28:21.905Z,-2.44
2023-04-06T01:31:27.478Z,-2.26
2023-04-06T01:34:14.257Z,-2.35
2023-04-06T01:37:01.792Z,-2.10
2023-04-06T01:39:51.507Z,-2.12
2023-04-06T01:42:47.461Z,-2.14
2023-04-06T01:45:41.015Z,-2.12
2023-04-06T01:48:35.034Z,-1.94
2023-04-06T01:51:29.760Z,-2.08
2023-04-06T01:54:19.520Z,-2.20
2023-04-06T01:57:24.681Z,-2.34
2023-04-06T02:00:18.592Z,-2.25
2023-04-06T02:03:12.258Z,-2.19
2023-04-06T02:05:59.977Z,-2.15
2023-04-06T02:08:52.714Z,-1.92
2023-04-06T02:11:40.017Z,-1.94
2023-04-06T02:14:27.358Z,-2.18
2023-04-06T02:17:17.468Z,-1.72
2023-04-06T02:20:04.431Z,-1.80
2023-04-06T02:22:51.111Z,-1.88
2023-04-06T02:25:37.710Z,-1.94
2023-04-06T02:28:24.337Z,-1.97
2023-04-06T02:31:11.113Z,-2.03
2023-04-06T02:33:58.647Z,-2.09
2023-04-06T02:36:46.766Z,-2.06
2023-04-06T02:39:34.502Z,-1.95
2023-04-06T02:42:22.369Z,-1.86
2023-04-06T02:45:12.231Z,-1.89
2023-04-06T02:48:03.545Z,-1.99
2023-04-06T02:50:52.018Z,-2.14
2023-04-06T02:53:38.874Z,-1.94
2023-04-06T02:56:27.455Z,-2.09
2023-04-06T02:59:13.924Z,-2.29
2023-04-06T03:02:06.610Z,-2.24
2023-04-06T03:04:53.304Z,-2.16
2023-04-06T03:07:46.428Z,-2.30
2023-04-06T03:10:40.093Z,-2.33
2023-04-06T03:13:26.704Z,-2.57
2023-04-06T03:16:16.540Z,-2.65
2023-04-06T03:19:03.758Z,-2.73
2023-04-06T03:21:53.606Z,-2.75
2023-04-06T03:24:42.229Z,-2.83
2023-04-06T03:27:28.969Z,-2.81
2023-04-06T03:30:18.579Z,-2.81
2023-04-06T03:33:05.586Z,-2.85
2023-04-06T03:35:57.916Z,-2.82
2023-04-06T03:38:46.768Z,-2.94
2023-04-06T03:41:34.772Z,-3.01
2023-04-06T03:44:26.936Z,-3.07
2023-04-06T03:47:13.644Z,-3.12
2023-04-06T03:50:00.984Z,-3.08
2023-04-06T03:52:47.850Z,-3.03
2023-04-06T03:55:34.657Z,-2.97
2023-04-06T03:58:21.093Z,-2.78
2023-04-06T04:01:07.762Z,-2.85
2023-04-06T04:03:54.910Z,-2.96
2023-04-06T04:06:43.294Z,-3.13
2023-04-06T04:09:29.989Z,-3.27
2023-04-06T04:12:17.626Z,-3.09
2023-04-06T04:15:04.312Z,-3.03
2023-04-06T04:17:51.605Z,-2.99
2023-04-06T04:20:38.454Z,-3.05
2023-04-06T04:23:25.113Z,-3.16
2023-04-06T04:26:11.697Z,-3.17
2023-04-06T04:28:59.504Z,-3.18
2023-04-06T04:31:46.657Z,-3.32
2023-04-06T04:34:37.138Z,-3.34
2023-04-06T04:37:26.499Z,-3.44
2023-04-06T04:40:16.857Z,-3.38
2023-04-06T04:43:19.789Z,-3.23
2023-04-06T04:46:06.786Z,-3.37
2023-04-06T04:49:03.173Z,-3.34
2023-04-06T04:51:53.483Z,-3.35
2023-04-06T04:54:48.089Z,-3.30
2023-04-06T04:57:42.490Z,-3.32
2023-04-06T05:00:29.247Z,-3.19
2023-04-06T05:03:23.293Z,-3.19
2023-04-06T05:06:16.990Z,-3.16
2023-04-06T05:09:04.367Z,-3.35
2023-04-06T05:11:51.723Z,-2.97
2023-04-06T05:14:38.413Z,-2.70
2023-04-06T05:17:32.296Z,-2.90
2023-04-06T05:20:19.839Z,-2.94
2023-04-06T05:23:09.990Z,-2.80
2023-04-06T05:25:56.834Z,-2.56
2023-04-06T05:28:45.417Z,-2.49
2023-04-06T05:31:32.897Z,-2.41
2023-04-06T05:34:19.864Z,-2.35
2023-04-06T05:37:08.124Z,-2.01
2023-04-06T05:39:56.581Z,-1.81
2023-04-06T05:42:43.938Z,-1.72
2023-04-06T05:45:31.393Z,-1.54
2023-04-06T05:48:19.328Z,-1.57
2023-04-06T05:51:08.944Z,-1.45
2023-04-06T05:54:05.541Z,-1.35
2023-04-06T05:56:55.610Z,-1.25
2023-04-06T05:59:42.230Z,-1.23
2023-04-06T06:02:34.039Z,-1.07
2023-04-06T06:05:20.742Z,-0.80
2023-04-06T06:08:08.804Z,-0.67
2023-04-06T06:10:56.116Z,-0.51
2023-04-06T06:13:44.032Z,-0.34
2023-04-06T06:16:31.124Z,-0.08
2023-04-06T06:19:18.713Z,0.01
2023-04-06T06:22:06.144Z,0.06
2023-04-06T06:24:56.479Z,0.14
2023-04-06T06:27:44.375Z,0.17
2023-04-06T06:30:30.976Z,0.10
2023-04-06T06:33:18.036Z,0.20
2023-04-06T06:36:06.017Z,0.09
2023-04-06T06:38:52.886Z,0.06
2023-04-06T06:41:41.350Z,-0.11
2023-04-06T06:44:29.329Z,0.11
2023-04-06T06:47:16.053Z,0.09
2023-04-06T06:50:04.651Z,0.18
2023-04-06T06:52:51.428Z,0.46
2023-04-06T06:55:37.706Z,0.59
2023-04-06T06:58:24.454Z,0.62
2023-04-06T07:01:11.158Z,0.54
2023-04-06T07:03:58.278Z,0.79
2023-04-06T07:06:45.028Z,1.01
2023-04-06T07:09:32.080Z,1.08
2023-04-06T07:12:18.528Z,1.33
2023-04-06T07:15:06.070Z,1.57
2023-04-06T07:17:55.613Z,1.71
2023-04-06T07:20:42.442Z,1.68
2023-04-06T07:23:29.552Z,2.03
2023-04-06T07:26:16.237Z,1.98
2023-04-06T07:29:02.961Z,1.89
2023-04-06T07:31:50.453Z,2.28
2023-04-06T07:34:37.328Z,2.21
2023-04-06T07:37:24.332Z,2.41
2023-04-06T07:40:11.024Z,2.59
2023-04-06T07:42:58.718Z,2.84
2023-04-06T07:45:46.384Z,3.02
2023-04-06T07:48:38.573Z,3.28
2023-04-06T07:51:26.583Z,3.39
2023-04-06T07:54:13.327Z,3.65
2023-04-06T07:56:59.756Z,3.73
2023-04-06T07:59:46.606Z,4.10
2023-04-06T08:02:33.212Z,4.16
2023-04-06T08:05:20.377Z,4.45
2023-04-06T08:08:06.843Z,4.77
2023-04-06T08:10:53.366Z,4.96
2023-04-06T08:13:40.869Z,5.12
2023-04-06T08:16:27.599Z,5.13
2023-04-06T08:19:14.219Z,5.40
2023-04-06T08:22:00.949Z,5.55
2023-04-06T08:24:47.767Z,5.67
2023-04-06T08:27:34.263Z,5.82
2023-04-06T08:30:22.023Z,5.99
2023-04-06T08:33:08.542Z,6.27
2023-04-06T08:35:55.461Z,6.21
2023-04-06T08:38:43.939Z,6.46
2023-04-06T08:41:30.690Z,6.79
2023-04-06T08:44:17.815Z,6.93
2023-04-06T08:47:11.632Z,7.23
2023-04-06T08:50:00.594Z,7.33
2023-04-06T08:52:49.370Z,7.40
2023-04-06T08:55:36.839Z,7.53
2023-04-06T08:58:35.157Z,7.61
2023-04-06T09:01:27.480Z,7.50
2023-04-06T09:04:14.867Z,7.65
2023-04-06T09:07:02.599Z,7.95
2023-04-06T09:09:49.135Z,8.02
2023-04-06T09:12:35.980Z,8.26
2023-04-06T09:15:24.738Z,8.37
2023-04-06T09:18:11.566Z,8.70
2023-04-06T09:21:00.399Z,8.82
2023-04-06T09:23:47.169Z,8.75
2023-04-06T09:26:34.875Z,8.69
2023-04-06T09:29:27.958Z,8.79
2023-04-06T09:32:17.988Z,9.03
2023-04-06T09:35:11.194Z,9.07
2023-04-06T09:37:57.976Z,9.09
2023-04-06T09:41:01.183Z,9.23
2023-04-06T09:43:48.133Z,9.44
2023-04-06T09:46:54.958Z,9.54
2023-04-06T09:49:46.879Z,9.89
2023-04-06T09:52:38.426Z,9.93
2023-04-06T09:55:32.135Z,9.91
2023-04-06T09:58:21.807Z,10.03
2023-04-06T10:01:13.189Z,10.22
2023-04-06T10:04:02.866Z,10.20
2023-04-06T10:06:53.313Z,10.10
2023-04-06T10:09:39.762Z,10.33
2023-04-06T10:12:26.464Z,10.43
2023-04-06T10:15:13.334Z,10.37
2023-04-06T10:18:00.606Z,10.39
2023-04-06T10:20:54.395Z,10.27
2023-04-06T10:23:54.863Z,10.29
2023-04-06T10:26:41.463Z,10.45
2023-04-06T10:29:27.984Z,10.62
2023-04-06T10:32:14.640Z,10.71
2023-04-06T10:35:12.493Z,10.77
2023-04-06T10:38:04.302Z,10.85
2023-04-06T10:40:50.826Z,10.45
2023-04-06T10:43:39.021Z,10.57
2023-04-06T10:46:30.763Z,10.49
2023-04-06T10:49:17.081Z,10.67
2023-04-06T10:52:03.495Z,10.69
2023-04-06T10:54:51.165Z,10.75
2023-04-06T10:57:37.926Z,10.83
2023-04-06T11:00:26.134Z,11.02
2023-04-06T11:03:15.896Z,10.98
2023-04-06T11:06:02.612Z,11.53
2023-04-06T11:08:49.555Z,11.85
2023-04-06T11:11:40.928Z,11.80
2023-04-06T11:14:27.604Z,11.84
2023-04-06T11:17:14.782Z,11.99
2023-04-06T11:20:01.580Z,11.90
2023-04-06T11:22:54.509Z,11.68
2023-04-06T11:25:51.431Z,11.60
2023-04-06T11:28:38.606Z,11.85
2023-04-06T11:31:28.798Z,11.95
2023-04-06T11:34:21.686Z,11.78
2023-04-06T11:37:13.065Z,11.96
2023-04-06T11:39:59.552Z,12.08
2023-04-06T11:42:53.346Z,12.31
2023-04-06T11:45:44.157Z,12.35
2023-04-06T11:48:32.022Z,12.00
2023-04-06T11:51:25.093Z,12.43
2023-04-06T11:54:11.532Z,12.45
2023-04-06T11:56:58.094Z,12.73
2023-04-06T11:59:45.264Z,12.80
2023-04-06T12:02:33.349Z,12.84
2023-04-06T12:05:19.933Z,12.71
2023-04-06T12:08:06.461Z,12.25
2023-04-06T12:10:52.771Z,12.33
2023-04-06T12:13:39.470Z,12.54
2023-04-06T12:16:25.887Z,12.88
2023-04-06T12:19:12.494Z,13.00
2023-04-06T12:21:59.132Z,13.24
2023-04-06T12:24:45.385Z,13.29
2023-04-06T12:27:34.442Z,12.90
2023-04-06T12:30:21.077Z,12.97
2023-04-06T12:33:07.673Z,13.19
2023-04-06T12:35:54.287Z,13.21
2023-04-06T12:38:42.088Z,13.52
2023-04-06T12:41:29.323Z,13.35
2023-04-06T12:44:15.960Z,13.52
2023-04-06T12:47:02.568Z,12.93
2023-04-06T12:49:49.426Z,13.26
2023-04-06T12:52:37.609Z,13.63
2023-04-06T12:55:24.377Z,14.07
2023-04-06T12:58:11.334Z,13.84
2023-04-06T13:01:03.771Z,13.57
2023-04-06T13:03:50.802Z,13.22
2023-04-06T13:06:37.398Z,13.24
2023-04-06T13:09:23.938Z,13.51
2023-04-06T13:12:10.422Z,13.54
2023-04-06T13:14:57.764Z,13.60
2023-04-06T13:17:44.343Z,13.88
2023-04-06T13:20:31.060Z,14.12
2023-04-06T13:23:17.632Z,14.16
2023-04-06T13:26:06.450Z,14.13
2023-04-06T13:28:52.799Z,14.80
2023-04-06T13:31:39.869Z,14.68
2023-04-06T13:34:26.456Z,13.96
2023-04-06T13:37:14.305Z,14.18
2023-04-06T13:40:02.528Z,14.24
2023-04-06T13:42:49.211Z,13.67
2023-04-06T13:45:35.868Z,13.95
2023-04-06T13:48:22.556Z,14.09
2023-04-06T13:51:11.229Z,13.92
2023-04-06T13:53:57.720Z,14.44
2023-04-06T13:56:44.123Z,14.68
2023-04-06T13:59:35.013Z,14.49
2023-04-06T14:02:24.015Z,14.21
2023-04-06T14:05:11.033Z,14.10
2023-04-06T14:07:57.570Z,14.50
2023-04-06T14:10:44.165Z,14.54
2023-04-06T14:13:30.668Z,14.33
2023-04-06T14:16:20.391Z,14.34
2023-04-06T14:19:06.874Z,14.27
2023-04-06T14:21:53.164Z,14.51
2023-04-06T14:24:39.842Z,14.12
2023-04-06T14:27:26.196Z,14.38
2023-04-06T14:30:13.372Z,14.20
2023-04-06T14:32:59.914Z,14.39
2023-04-06T14:35:46.421Z,14.54
2023-04-06T14:38:33.379Z,14.69
2023-04-06T14:41:21.206Z,14.81
2023-04-06T14:44:07.793Z,14.72
2023-04-06T14:46:54.191Z,14.70
2023-04-06T14:49:40.764Z,14.70
2023-04-06T14:52:27.035Z,14.49
2023-04-06T14:55:14.929Z,14.52
2023-04-06T14:58:01.330Z,14.53
2023-04-06T15:00:48.692Z,14.64
2023-04-06T15:03:35.365Z,14.69
2023-04-06T15:06:22.486Z,14.51
2023-04-06T15:09:08.715Z,14.38
2023-04-06T15:11:56.516Z,14.40
2023-04-06T15:14:42.832Z,14.21
2023-04-06T15:17:29.024Z,14.42
2023-04-06T15:20:15.593Z,14.27
2023-04-06T15:23:05.195Z,14.21
2023-04-06T15:25:51.716Z,14.31
2023-04-06T15:28:38.272Z,14.26
2023-04-06T15:31:36.647Z,14.30
2023-04-06T15:34:24.230Z,14.31
2023-04-06T15:37:10.488Z,13.94
2023-04-06T15:39:57.892Z,13.88
2023-04-06T15:42:45.577Z,13.73
2023-04-06T15:45:31.877Z,13.69
2023-04-06T15:48:19.205Z,13.76
2023-04-06T15:51:05.883Z,13.78
2023-04-06T15:53:52.059Z,13.52
2023-04-06T15:56:38.306Z,13.53
2023-04-06T15:59:24.615Z,13.50
2023-04-06T16:02:11.062Z,13.36
2023-04-06T16:05:01.298Z,13.39
2023-04-06T16:07:47.743Z,13.45
2023-04-06T16:10:34.121Z,13.30
2023-04-06T16:13:21.492Z,13.12
2023-04-06T16:16:08.559Z,13.00
2023-04-06T16:18:55.035Z,12.89
2023-04-06T16:21:41.678Z,12.64
2023-04-06T16:24:28.710Z,12.71
2023-04-06T16:27:15.720Z,12.65
2023-04-06T16:32:54.360Z,12.61
2023-04-06T16:35:45.481Z,12.52
2023-04-06T16:38:35.583Z,12.44
2023-04-06T16:41:22.587Z,12.38
2023-04-06T16:44:09.235Z,12.22
2023-04-06T16:46:56.519Z,12.13
2023-04-06T16:49:46.478Z,11.97
2023-04-06T16:52:34.102Z,11.98
2023-04-06T16:55:20.823Z,11.91
2023-04-06T16:58:07.398Z,12.02
2023-04-06T17:00:53.843Z,11.91
2023-04-06T17:03:40.593Z,11.90
2023-04-06T17:06:27.840Z,11.85
2023-04-06T17:09:14.346Z,11.82
2023-04-06T17:12:00.571Z,11.67
2023-04-06T17:14:46.960Z,11.61
2023-04-06T17:17:33.509Z,11.54
2023-04-06T17:20:19.984Z,11.47
2023-04-06T17:23:06.709Z,11.41
2023-04-06T17:25:54.659Z,11.42
2023-04-06T17:28:44.214Z,11.38
2023-04-06T17:31:31.257Z,11.34
2023-04-06T17:34:17.757Z,11.25
2023-04-06T17:37:04.359Z,11.19
2023-04-06T17:39:50.899Z,11.06
2023-04-06T17:42:37.573Z,10.95
2023-04-06T17:45:24.112Z,11.02
2023-04-06T17:48:10.536Z,10.99
2023-04-06T17:50:57.423Z,10.88
2023-04-06T17:53:43.906Z,10.83
2023-04-06T17:56:33.606Z,10.75
2023-04-06T18:08:01.293Z,10.51
2023-04-06T18:10:52.865Z,10.42
2023-04-06T18:13:40.333Z,10.24
2023-04-06T18:16:28.329Z,10.36
2023-04-06T18:19:15.223Z,10.31
2023-04-06T18:22:01.528Z,10.15
2023-04-06T18:24:47.925Z,10.19
2023-04-06T18:27:34.680Z,10.30
2023-04-06T18:30:21.024Z,10.33
2023-04-06T18:33:07.818Z,10.22
2023-04-06T18:35:56.600Z,10.20
2023-04-06T18:38:48.137Z,10.22
2023-04-06T18:41:35.463Z,10.26
2023-04-06T18:44:21.773Z,10.19
2023-04-06T18:47:08.283Z,10.30
2023-04-06T18:49:54.893Z,10.22
2023-04-06T18:52:41.855Z,10.19
2023-04-06T18:55:28.586Z,10.14
2023-04-06T18:58:15.097Z,9.99
2023-04-06T19:01:01.733Z,10.01
2023-04-06T19:03:48.662Z,10.00
2023-04-06T19:06:35.430Z,9.99
2023-04-06T19:09:22.011Z,9.97
2023-04-06T19:12:08.459Z,9.88
2023-04-06T19:14:54.584Z,9.88
2023-04-06T19:17:41.180Z,9.80
2023-04-06T19:20:27.823Z,9.73
2023-04-06T19:23:14.007Z,9.76
2023-04-06T19:26:00.693Z,9.71
2023-04-06T19:28:47.588Z,9.61
2023-04-06T19:31:34.000Z,9.63
2023-04-06T19:34:20.472Z,9.62
2023-04-06T19:37:06.795Z,9.53
2023-04-06T19:39:52.945Z,9.63
2023-04-06T19:42:39.877Z,9.64
2023-04-06T19:45:26.349Z,9.57
2023-04-06T19:48:16.587Z,9.54
2023-04-06T19:51:02.966Z,9.59
2023-04-06T19:53:49.330Z,9.49
2023-04-06T19:56:35.560Z,9.49
2023-04-06T19:59:22.090Z,9.34
2023-04-06T20:02:08.675Z,9.30
2023-04-06T20:04:55.242Z,9.21
2023-04-06T20:07:41.867Z,9.14
2023-04-06T20:10:28.619Z,9.16
2023-04-06T20:13:14.859Z,9.08
2023-04-06T20:16:01.158Z,9.03
2023-04-06T20:18:47.472Z,8.95
2023-04-06T20:21:33.695Z,8.92
2023-04-06T20:24:24.025Z,8.83
2023-04-06T20:27:10.619Z,8.74
2023-04-06T20:29:56.891Z,8.70
2023-04-06T20:32:43.303Z,8.58
2023-04-06T20:35:31.174Z,8.44
2023-04-06T20:38:32.268Z,8.39
2023-04-06T20:41:19.780Z,8.33
2023-04-06T20:44:06.287Z,8.16
2023-04-06T20:46:52.889Z,8.21
2023-04-06T20:49:39.490Z,8.18
2023-04-06T20:52:26.764Z,8.15
2023-04-06T20:55:13.128Z,8.03
2023-04-06T20:57:59.379Z,8.06
2023-04-06T21:00:45.874Z,8.07
2023-04-06T21:03:32.423Z,7.82
2023-04-06T21:06:19.159Z,7.74
2023-04-06T21:09:05.883Z,7.67
2023-04-06T21:11:52.753Z,7.62
2023-04-06T21:14:40.083Z,7.58
2023-04-06T21:17:26.822Z,7.43
2023-04-06T21:20:13.189Z,7.25
2023-04-06T21:22:59.755Z,7.14
2023-04-06T21:25:46.211Z,7.46
2023-04-06T21:28:32.404Z,7.36
2023-04-06T21:31:19.869Z,7.47
2023-04-06T21:34:13.543Z,7.24
2023-04-06T21:37:00.153Z,7.32
2023-04-06T21:39:46.674Z,7.32
2023-04-06T21:42:35.156Z,7.17
2023-04-06T21:45:24.570Z,7.13
2023-04-06T21:48:11.240Z,6.94
2023-04-06T21:50:57.395Z,6.88
2023-04-06T21:53:43.825Z,6.86
2023-04-06T21:56:30.394Z,6.87
2023-04-06T21:59:16.863Z,6.88
2023-04-06T22:02:03.237Z,6.82
2023-04-06T22:04:49.926Z,6.83
2023-04-06T22:07:36.419Z,6.86
2023-04-06T22:10:23.485Z,6.78
2023-04-06T22:13:12.117Z,6.73
2023-04-06T22:15:58.691Z,6.66
2023-04-06T22:18:45.372Z,6.69
2023-04-06T22:21:33.108Z,6.59
2023-04-06T22:24:19.757Z,6.49
2023-04-06T22:27:06.638Z,6.59
2023-04-06T22:29:53.307Z,6.58
2023-04-06T22:32:39.592Z,6.50
2023-04-06T22:35:26.219Z,6.41
2023-04-06T22:38:12.992Z,6.32
2023-04-06T22:40:59.535Z,6.32
2023-04-06T22:43:45.902Z,6.37
2023-04-06T22:46:32.289Z,6.27
2023-04-06T22:49:18.829Z,6.10
2023-04-06T22:52:05.341Z,6.07
2023-04-06T22:54:51.977Z,5.94
2023-04-06T22:57:38.510Z,5.91
2023-04-06T23:00:24.714Z,5.83
2023-04-06T23:03:11.416Z,5.94
2023-04-06T23:05:57.830Z,5.87
2023-04-06T23:08:44.182Z,5.83
2023-04-06T23:11:30.659Z,5.81
2023-04-06T23:14:17.658Z,5.74
2023-04-06T23:17:04.716Z,5.91
2023-04-06T23:19:51.498Z,5.86
2023-04-06T23:22:38.668Z,5.78
2023-04-06T23:25:25.447Z,5.84
2023-04-06T23:28:12.002Z,5.82
2023-04-06T23:30:58.374Z,5.77
2023-04-06T23:33:44.681Z,5.73
2023-04-06T23:36:32.064Z,5.74
2023-04-06T23:39:18.498Z,5.75
2023-04-06T23:42:04.944Z,5.73
2023-04-06T23:44:51.156Z,5.77
2023-04-06T23:47:37.594Z,5.81
2023-04-06T23:50:24.171Z,5.84
2023-04-06T23:53:10.518Z,5.69
2023-04-06T23:55:56.809Z,5.69
2023-04-06T23:58:43.721Z,5.85
